createdAt,value
2018-10-12T00:00:27.138Z,9.63
2018-10-12T00:02:56.639Z,10.07
2018-10-12T00:05:26.159Z,9.87
2018-10-12T00:07:55.748Z,9.47
2018-10-12T00:10:25.014Z,9.10
2018-10-12T00:12:54.110Z,9.70
2018-10-12T00:15:23.350Z,9.00
2018-10-12T00:17:52.432Z,8.90
2018-10-12T00:20:21.817Z,9.60
2018-10-12T00:22:50.828Z,9.73
2018-10-12T00:25:19.922Z,9.17
2018-10-12T00:27:49.727Z,9.30
2018-10-12T00:30:19.007Z,9.23
2018-10-12T00:32:48.103Z,10.27
2018-10-12T00:35:17.105Z,10.10
2018-10-12T00:37:46.178Z,9.37
2018-10-12T00:40:15.224Z,9.83
2018-10-12T00:42:44.632Z,10.17
2018-10-12T00:45:13.736Z,10.13
2018-10-12T00:47:43.209Z,9.60
2018-10-12T00:50:13.174Z,10.40
2018-10-12T00:52:42.869Z,9.17
2018-10-12T00:55:12.099Z,9.60
2018-10-12T00:57:41.464Z,9.87
2018-10-12T01:00:11.604Z,8.93
2018-10-12T01:02:41.168Z,9.57
2018-10-12T01:05:12.553Z,9.30
2018-10-12T01:07:42.123Z,9.43
2018-10-12T01:10:11.463Z,9.83
2018-10-12T01:12:41.817Z,9.63
2018-10-12T01:15:11.423Z,9.63
2018-10-12T01:17:40.986Z,9.93
2018-10-12T01:20:10.498Z,10.37
2018-10-12T01:22:40.177Z,10.17
2018-10-12T01:25:09.829Z,9.30
2018-10-12T01:27:38.853Z,9.60
2018-10-12T01:30:08.085Z,10.30
2018-10-12T01:32:42.651Z,9.83
2018-10-12T01:35:11.872Z,9.80
2018-10-12T01:37:41.334Z,10.13
2018-10-12T01:40:10.547Z,10.20
2018-10-12T01:42:40.170Z,10.27
2018-10-12T01:45:10.389Z,10.13
2018-10-12T01:47:39.737Z,10.87
2018-10-12T01:50:09.290Z,10.40
2018-10-12T01:52:38.518Z,10.13
2018-10-12T01:55:07.840Z,10.00
2018-10-12T01:57:36.930Z,10.03
2018-10-12T02:00:06.508Z,10.77
2018-10-12T02:02:35.811Z,10.90
2018-10-12T02:05:04.990Z,10.57
2018-10-12T02:07:34.685Z,10.40
2018-10-12T02:10:04.326Z,10.50
2018-10-12T02:12:34.251Z,10.67
2018-10-12T02:15:04.169Z,10.70
2018-10-12T02:17:33.221Z,10.37
2018-10-12T02:20:02.652Z,10.83
2018-10-12T02:22:32.043Z,10.37
2018-10-12T02:25:01.548Z,10.30
2018-10-12T02:27:30.574Z,11.17
2018-10-12T02:30:00.126Z,10.80
2018-10-12T02:32:29.199Z,10.47
2018-10-12T02:34:58.342Z,10.53
2018-10-12T02:37:28.162Z,10.90
2018-10-12T02:39:57.336Z,10.87
2018-10-12T02:42:26.928Z,10.33
2018-10-12T02:44:56.217Z,10.40
2018-10-12T02:47:25.402Z,11.10
2018-10-12T02:49:54.633Z,11.53
2018-10-12T02:52:24.571Z,10.33
2018-10-12T02:54:53.715Z,10.83
2018-10-12T02:57:22.993Z,11.63
2018-10-12T02:59:52.509Z,10.87
2018-10-12T03:02:21.735Z,11.40
2018-10-12T03:04:51.262Z,11.50
2018-10-12T03:07:20.716Z,11.30
2018-10-12T03:09:49.761Z,11.33
2018-10-12T03:12:19.152Z,11.03
2018-10-12T03:14:48.226Z,11.60
2018-10-12T03:17:17.258Z,11.40
2018-10-12T03:19:46.293Z,11.57
2018-10-12T03:22:15.361Z,11.63
2018-10-12T03:24:44.428Z,11.27
2018-10-12T03:27:13.473Z,11.53
2018-10-12T03:29:43.183Z,11.70
2018-10-12T03:32:12.566Z,11.57
2018-10-12T03:34:41.972Z,11.97
2018-10-12T03:37:10.913Z,11.77
2018-10-12T03:39:40.511Z,12.73
2018-10-12T03:42:10.378Z,11.73
2018-10-12T03:44:40.668Z,13.37
2018-10-12T03:47:10.149Z,12.07
2018-10-12T03:49:39.850Z,11.97
2018-10-12T03:52:10.449Z,11.77
2018-10-12T03:54:39.946Z,12.33
2018-10-12T03:57:10.000Z,12.13
2018-10-12T03:59:39.546Z,12.67
2018-10-12T04:02:08.924Z,12.50
2018-10-12T04:04:38.415Z,12.70
2018-10-12T04:07:08.574Z,12.47
2018-10-12T04:09:37.940Z,12.47
2018-10-12T04:12:07.735Z,12.60
2018-10-12T04:14:37.532Z,12.57
2018-10-12T04:17:07.956Z,13.27
2018-10-12T04:19:37.321Z,13.33
2018-10-12T04:22:07.112Z,12.70
2018-10-12T04:24:36.694Z,12.77
2018-10-12T04:27:06.481Z,11.50
2018-10-12T04:29:36.477Z,11.33
2018-10-12T04:32:05.985Z,12.13
2018-10-12T04:34:35.359Z,12.87
2018-10-12T04:37:05.989Z,12.17
2018-10-12T04:39:50.497Z,12.43
2018-10-12T04:42:19.713Z,12.83
2018-10-12T04:44:49.165Z,12.43
2018-10-12T04:47:18.880Z,12.90
2018-10-12T04:49:48.574Z,12.73
2018-10-12T04:52:18.153Z,12.33
2018-10-12T04:54:47.888Z,12.63
2018-10-12T04:57:18.108Z,12.67
2018-10-12T04:59:47.796Z,12.57
2018-10-12T05:02:17.126Z,12.17
2018-10-12T05:04:46.614Z,12.77
2018-10-12T05:07:16.583Z,12.73
2018-10-12T05:09:46.792Z,12.37
2018-10-12T05:12:18.636Z,12.77
2018-10-12T05:14:52.529Z,12.30
2018-10-12T05:17:23.091Z,12.73
2018-10-12T05:19:52.527Z,13.13
2018-10-12T05:22:21.753Z,12.27
2018-10-12T05:24:51.090Z,13.30
2018-10-12T05:27:20.559Z,13.00
2018-10-12T05:29:50.173Z,12.90
2018-10-12T05:32:20.838Z,13.00
2018-10-12T05:34:51.047Z,12.43
2018-10-12T05:37:20.570Z,12.73
2018-10-12T05:39:50.562Z,13.50
2018-10-12T05:42:21.135Z,12.87
2018-10-12T05:44:51.076Z,13.10
2018-10-12T05:47:21.358Z,12.30
2018-10-12T05:50:00.311Z,12.90
2018-10-12T05:52:30.556Z,13.40
2018-10-12T05:55:00.940Z,12.93
2018-10-12T05:57:32.033Z,12.57
2018-10-12T06:00:01.952Z,13.73
2018-10-12T06:02:31.772Z,12.73
2018-10-12T06:05:01.425Z,13.40
2018-10-12T06:07:31.832Z,12.20
2018-10-12T06:10:01.940Z,12.87
2018-10-12T06:12:31.318Z,12.53
2018-10-12T06:15:01.029Z,13.67
2018-10-12T06:17:32.297Z,12.93
2018-10-12T06:20:01.879Z,13.00
2018-10-12T06:22:31.352Z,12.40
2018-10-12T06:25:01.744Z,12.53
2018-10-12T06:27:31.449Z,11.53
2018-10-12T06:30:01.868Z,12.67
2018-10-12T06:32:32.091Z,13.17
2018-10-12T06:35:02.750Z,13.17
2018-10-12T06:37:32.864Z,12.70
2018-10-12T06:40:03.678Z,12.77
2018-10-12T06:42:34.859Z,13.07
2018-10-12T06:45:05.432Z,12.93
2018-10-12T06:47:36.184Z,13.10
2018-10-12T06:50:07.036Z,13.03
2018-10-12T06:52:37.041Z,12.73
2018-10-12T06:55:07.464Z,12.13
2018-10-12T06:57:37.227Z,12.67
2018-10-12T07:00:07.365Z,12.23
2018-10-12T07:02:37.203Z,12.80
2018-10-12T07:05:07.143Z,13.27
2018-10-12T07:07:37.205Z,12.90
2018-10-12T07:10:08.599Z,13.43
2018-10-12T07:12:38.375Z,12.97
2018-10-12T07:15:08.397Z,13.87
2018-10-12T07:17:37.965Z,13.17
2018-10-12T07:20:08.948Z,13.17
2018-10-12T07:22:38.982Z,11.87
2018-10-12T07:25:09.012Z,13.30
2018-10-12T07:27:41.571Z,14.33
2018-10-12T07:30:11.748Z,13.07
2018-10-12T07:32:47.532Z,14.33
2018-10-12T07:35:17.060Z,13.87
2018-10-12T07:37:46.587Z,13.20
2018-10-12T07:40:16.188Z,13.90
2018-10-12T07:42:45.651Z,12.67
2018-10-12T07:45:15.066Z,14.10
2018-10-12T07:47:44.899Z,12.87
2018-10-12T07:50:14.355Z,12.85
2018-10-12T07:52:44.437Z,13.20
2018-10-12T07:55:14.408Z,13.05
2018-10-12T07:57:45.629Z,13.35
2018-10-12T08:00:15.861Z,13.00
2018-10-12T08:02:46.722Z,12.40
2018-10-12T08:05:16.753Z,13.30
2018-10-12T08:07:46.787Z,12.07
2018-10-12T08:10:17.291Z,12.35
2018-10-12T08:12:47.564Z,12.90
2018-10-12T08:15:17.968Z,12.82
2018-10-12T08:17:47.753Z,12.30
2018-10-12T08:20:17.819Z,11.75
2018-10-12T08:22:54.380Z,24.52
2018-10-12T08:25:24.712Z,11.57
2018-10-12T08:27:55.068Z,12.28
2018-10-12T08:30:24.993Z,12.20
2018-10-12T08:32:55.338Z,13.03
2018-10-12T08:35:25.512Z,13.43
2018-10-12T08:37:55.822Z,11.95
2018-10-12T08:40:25.939Z,12.58
2018-10-12T08:42:56.144Z,11.75
2018-10-12T08:45:26.385Z,11.45
2018-10-12T08:47:56.302Z,11.25
2018-10-12T08:50:26.783Z,10.48
2018-10-12T08:52:56.747Z,10.93
2018-10-12T08:55:26.752Z,11.68
2018-10-12T08:57:57.612Z,11.18
2018-10-12T09:00:28.002Z,11.53
2018-10-12T09:02:57.472Z,10.37
2018-10-12T09:05:27.464Z,10.73
2018-10-12T09:07:56.866Z,10.93
2018-10-12T09:10:26.565Z,11.07
2018-10-12T09:12:56.519Z,10.87
2018-10-12T09:15:26.694Z,11.00
2018-10-12T09:17:56.209Z,10.87
2018-10-12T09:20:26.674Z,10.87
2018-10-12T09:22:56.294Z,9.93
2018-10-12T09:25:26.008Z,11.27
2018-10-12T09:27:56.198Z,11.93
2018-10-12T09:30:26.196Z,10.03
2018-10-12T09:32:57.277Z,11.27
2018-10-12T09:35:26.835Z,10.53
2018-10-12T09:37:56.155Z,10.80
2018-10-12T09:40:26.129Z,11.13
2018-10-12T09:42:56.066Z,10.90
2018-10-12T09:45:25.787Z,11.70
2018-10-12T09:47:54.855Z,10.80
2018-10-12T09:50:24.226Z,11.07
2018-10-12T09:52:53.423Z,11.27
2018-10-12T09:55:22.773Z,11.33
2018-10-12T09:57:51.931Z,11.07
2018-10-12T10:00:28.232Z,9.90
2018-10-12T10:02:58.798Z,11.67
2018-10-12T10:05:28.033Z,10.67
2018-10-12T10:07:57.276Z,10.47
2018-10-12T10:10:26.444Z,11.30
2018-10-12T10:12:55.584Z,11.30
2018-10-12T10:15:25.209Z,11.33
2018-10-12T10:17:55.092Z,11.10
2018-10-12T10:20:24.173Z,10.77
2018-10-12T10:22:53.856Z,11.43
2018-10-12T10:25:23.251Z,11.10
2018-10-12T10:27:52.719Z,11.10
2018-10-12T10:30:22.135Z,11.33
2018-10-12T10:32:51.253Z,10.80
2018-10-12T10:35:20.479Z,10.13
2018-10-12T10:37:49.513Z,10.67
2018-10-12T10:40:18.933Z,10.83
2018-10-12T10:42:48.080Z,11.30
2018-10-12T10:45:17.946Z,11.37
2018-10-12T10:47:47.736Z,10.43
2018-10-12T10:50:17.307Z,10.97
2018-10-12T10:52:47.024Z,10.63
2018-10-12T10:55:16.414Z,10.60
2018-10-12T10:57:45.966Z,10.23
2018-10-12T11:00:15.992Z,11.20
2018-10-12T11:02:45.286Z,10.87
2018-10-12T11:05:15.253Z,10.70
2018-10-12T11:07:45.346Z,10.17
2018-10-12T11:10:14.661Z,11.10
2018-10-12T11:12:44.126Z,11.37
2018-10-12T11:15:13.987Z,11.13
2018-10-12T11:17:43.398Z,11.27
2018-10-12T11:20:13.781Z,9.80
2018-10-12T11:22:44.117Z,10.80
2018-10-12T11:25:14.316Z,11.73
2018-10-12T11:27:43.691Z,11.43
2018-10-12T11:30:13.278Z,10.53
2018-10-12T11:32:42.762Z,10.93
2018-10-12T11:35:12.544Z,10.57
2018-10-12T11:37:41.943Z,10.30
2018-10-12T11:40:11.216Z,10.63
2018-10-12T11:42:51.777Z,10.57
2018-10-12T11:45:21.323Z,10.00
2018-10-12T11:47:51.514Z,10.40
2018-10-12T11:50:21.520Z,10.97
2018-10-12T11:52:51.044Z,10.67
2018-10-12T11:55:20.379Z,10.23
2018-10-12T11:57:50.506Z,9.77
2018-10-12T12:00:20.050Z,9.40
2018-10-12T12:02:50.293Z,10.40
2018-10-12T12:05:20.036Z,10.10
2018-10-12T12:07:49.949Z,10.37
2018-10-12T12:10:19.218Z,10.73
2018-10-12T12:12:48.642Z,10.37
2018-10-12T12:15:18.358Z,9.73
2018-10-12T12:17:47.371Z,9.93
2018-10-12T12:20:16.487Z,9.97
2018-10-12T12:22:45.515Z,10.10
2018-10-12T12:25:15.236Z,9.67
2018-10-12T12:27:44.288Z,9.77
2018-10-12T12:30:13.374Z,10.53
2018-10-12T12:32:42.918Z,10.03
2018-10-12T12:35:12.786Z,10.10
2018-10-12T12:37:42.239Z,10.10
2018-10-12T12:40:11.326Z,9.83
2018-10-12T12:42:40.921Z,9.57
2018-10-12T12:45:10.722Z,10.07
2018-10-12T12:47:40.071Z,9.10
2018-10-12T12:50:09.602Z,9.43
2018-10-12T12:52:39.137Z,9.90
2018-10-12T12:55:09.170Z,9.17
2018-10-12T12:57:38.698Z,9.07
2018-10-12T13:00:09.170Z,9.17
2018-10-12T13:02:39.659Z,9.80
2018-10-12T13:05:09.252Z,9.47
2018-10-12T13:07:38.892Z,9.20
2018-10-12T13:10:08.675Z,9.63
2018-10-12T13:12:38.536Z,9.73
2018-10-12T13:15:08.447Z,9.40
2018-10-12T13:17:37.868Z,9.83
2018-10-12T13:20:07.758Z,10.00
2018-10-12T13:22:37.700Z,10.33
2018-10-12T13:25:07.416Z,9.40
2018-10-12T13:27:37.568Z,9.57
2018-10-12T13:30:07.546Z,9.60
2018-10-12T13:32:38.061Z,9.90
2018-10-12T13:35:08.331Z,9.80
2018-10-12T13:37:40.155Z,9.83
2018-10-12T13:40:10.158Z,8.77
2018-10-12T13:42:40.663Z,9.37
2018-10-12T13:45:10.473Z,9.53
2018-10-12T13:47:39.909Z,9.53
2018-10-12T13:50:10.321Z,9.73
2018-10-12T13:52:40.325Z,10.27
2018-10-12T13:55:11.078Z,9.77
2018-10-12T13:57:41.523Z,9.60
2018-10-12T14:00:12.451Z,9.50
2018-10-12T14:02:43.619Z,10.60
2018-10-12T14:05:13.595Z,10.57
2018-10-12T14:07:43.304Z,10.10
2018-10-12T14:10:13.249Z,9.43
2018-10-12T14:12:42.823Z,10.40
2018-10-12T14:15:12.633Z,9.90
2018-10-12T14:17:42.559Z,9.77
2018-10-12T14:20:12.976Z,9.40
2018-10-12T14:22:42.604Z,9.33
2018-10-12T14:25:12.484Z,9.77
2018-10-12T14:27:42.344Z,8.53
2018-10-12T14:30:12.752Z,9.87
2018-10-12T14:32:42.436Z,9.80
2018-10-12T14:35:11.781Z,9.77
2018-10-12T14:37:41.366Z,9.80
2018-10-12T14:40:11.181Z,9.87
2018-10-12T14:42:40.437Z,9.30
2018-10-12T14:45:09.694Z,9.53
2018-10-12T14:47:38.936Z,9.93
2018-10-12T14:50:08.452Z,9.57
2018-10-12T14:52:38.981Z,9.60
2018-10-12T14:55:09.201Z,9.10
2018-10-12T14:57:38.715Z,9.33
2018-10-12T15:00:09.085Z,9.00
2018-10-12T15:02:38.399Z,9.93
2018-10-12T15:05:07.594Z,9.73
2018-10-12T15:07:36.802Z,8.87
2018-10-12T15:10:06.152Z,8.90
2018-10-12T15:12:36.162Z,9.57
2018-10-12T15:15:19.346Z,9.87
2018-10-12T15:17:51.451Z,9.40
2018-10-12T15:20:21.201Z,9.40
2018-10-12T15:22:51.513Z,8.63
2018-10-12T15:25:21.312Z,9.00
2018-10-12T15:27:50.747Z,9.10
2018-10-12T15:30:20.718Z,9.30
2018-10-12T15:32:50.523Z,9.20
2018-10-12T15:35:20.363Z,9.27
2018-10-12T15:37:49.978Z,8.83
2018-10-12T15:40:19.269Z,9.47
2018-10-12T15:42:49.151Z,9.13
2018-10-12T15:45:18.871Z,8.67
2018-10-12T15:47:47.977Z,9.37
2018-10-12T15:50:17.349Z,9.53
2018-10-12T15:52:46.580Z,9.90
2018-10-12T15:55:16.431Z,9.40
2018-10-12T15:57:45.939Z,9.37
2018-10-12T16:00:15.410Z,8.80
2018-10-12T16:02:44.738Z,9.10
2018-10-12T16:05:13.886Z,8.93
2018-10-12T16:07:43.102Z,8.93
2018-10-12T16:10:12.499Z,8.67
2018-10-12T16:12:41.985Z,9.40
2018-10-12T16:15:11.468Z,9.93
2018-10-12T16:17:41.257Z,10.17
2018-10-12T16:20:11.733Z,10.83
2018-10-12T16:22:41.940Z,10.00
2018-10-12T16:25:22.703Z,9.50
2018-10-12T16:27:51.849Z,9.90
2018-10-12T16:30:21.789Z,9.07
2018-10-12T16:32:51.411Z,9.53
2018-10-12T16:35:20.841Z,9.30
2018-10-12T16:37:50.322Z,8.93
2018-10-12T16:40:19.821Z,9.03
2018-10-12T16:42:49.024Z,9.73
2018-10-12T16:45:18.211Z,9.13
2018-10-12T16:47:47.271Z,8.47
2018-10-12T16:50:16.415Z,9.47
2018-10-12T16:52:45.625Z,9.27
2018-10-12T16:55:15.273Z,9.43
2018-10-12T16:57:44.583Z,9.30
2018-10-12T17:00:14.497Z,9.60
2018-10-12T17:02:43.710Z,9.57
2018-10-12T17:05:13.460Z,9.97
2018-10-12T17:07:43.327Z,10.60
2018-10-12T17:10:13.699Z,10.10
2018-10-12T17:12:43.099Z,10.63
2018-10-12T17:15:13.423Z,10.80
2018-10-12T17:17:43.586Z,10.83
2018-10-12T17:20:13.481Z,10.90
2018-10-12T17:22:44.323Z,10.27
2018-10-12T17:25:14.576Z,10.20
2018-10-12T17:27:44.449Z,10.40
2018-10-12T17:30:14.535Z,10.30
2018-10-12T17:32:44.318Z,9.57
2018-10-12T17:35:14.372Z,10.17
2018-10-12T17:37:44.285Z,10.80
2018-10-12T17:40:14.116Z,10.40
2018-10-12T17:42:44.067Z,13.67
2018-10-12T17:45:14.823Z,13.93
2018-10-12T17:47:45.558Z,12.03
2018-10-12T17:50:15.284Z,11.90
2018-10-12T17:52:45.311Z,11.63
2018-10-12T17:55:15.397Z,11.70
2018-10-12T17:57:46.396Z,11.50
2018-10-12T18:00:16.080Z,11.50
2018-10-12T18:02:46.123Z,11.80
2018-10-12T18:05:16.208Z,12.23
2018-10-12T18:07:45.731Z,11.40
2018-10-12T18:10:15.145Z,11.97
2018-10-12T18:12:44.599Z,11.97
2018-10-12T18:15:13.902Z,12.20
2018-10-12T18:17:43.253Z,11.90
2018-10-12T18:20:13.138Z,12.23
2018-10-12T18:22:42.439Z,11.63
2018-10-12T18:25:12.048Z,11.27
2018-10-12T18:27:42.255Z,13.30
2018-10-12T18:30:14.690Z,13.27
2018-10-12T18:32:44.222Z,12.53
2018-10-12T18:35:13.530Z,12.63
2018-10-12T18:37:42.715Z,11.80
2018-10-12T18:40:12.383Z,12.33
2018-10-12T18:42:43.198Z,12.20
2018-10-12T18:45:12.933Z,13.03
2018-10-12T18:47:42.563Z,12.53
2018-10-12T18:50:12.254Z,12.87
2018-10-12T18:52:41.698Z,12.23
2018-10-12T18:55:11.572Z,13.00
2018-10-12T18:57:42.189Z,12.57
2018-10-12T19:00:11.839Z,11.93
2018-10-12T19:02:42.179Z,12.00
2018-10-12T19:05:11.715Z,12.40
2018-10-12T19:07:41.522Z,12.90
2018-10-12T19:10:11.766Z,12.10
2018-10-12T19:12:41.996Z,12.63
2018-10-12T19:15:12.406Z,11.83
2018-10-12T19:17:42.626Z,12.23
2018-10-12T19:20:12.748Z,12.20
2018-10-12T19:22:42.384Z,12.80
2018-10-12T19:25:11.930Z,13.27
2018-10-12T19:27:41.568Z,12.23
2018-10-12T19:30:11.203Z,11.70
2018-10-12T19:32:40.875Z,12.87
2018-10-12T19:35:12.161Z,13.77
2018-10-12T19:37:42.044Z,13.37
2018-10-12T19:40:12.173Z,13.87
2018-10-12T19:42:41.785Z,13.57
2018-10-12T19:45:11.417Z,13.23
2018-10-12T19:47:41.331Z,13.47
2018-10-12T19:50:11.306Z,13.60
2018-10-12T19:52:41.519Z,12.57
2018-10-12T19:55:12.267Z,13.70
2018-10-12T19:57:42.627Z,14.27
2018-10-12T20:00:12.708Z,14.73
2018-10-12T20:02:42.914Z,12.97
2018-10-12T20:05:12.894Z,12.83
2018-10-12T20:07:44.186Z,13.70
2018-10-12T20:10:14.352Z,13.07
2018-10-12T20:12:45.150Z,13.97
2018-10-12T20:15:14.965Z,14.77
2018-10-12T20:17:45.103Z,13.37
2018-10-12T20:20:15.759Z,13.57
2018-10-12T20:22:46.191Z,13.80
2018-10-12T20:25:16.079Z,14.13
2018-10-12T20:27:46.243Z,14.43
2018-10-12T20:30:16.394Z,13.60
2018-10-12T20:32:46.477Z,14.33
2018-10-12T20:35:16.482Z,13.73
2018-10-12T20:37:47.309Z,15.80
2018-10-12T20:40:17.409Z,14.10
2018-10-12T20:42:47.470Z,14.07
2018-10-12T20:45:17.081Z,14.90
2018-10-12T20:47:47.479Z,13.93
2018-10-12T20:50:17.272Z,14.80
2018-10-12T20:52:47.079Z,13.70
2018-10-12T20:55:17.096Z,14.17
2018-10-12T20:57:48.574Z,14.97
2018-10-12T21:00:19.936Z,14.20
2018-10-12T21:02:49.930Z,15.33
2018-10-12T21:05:19.938Z,15.00
2018-10-12T21:07:49.846Z,15.67
2018-10-12T21:10:19.862Z,14.27
2018-10-12T21:12:49.734Z,14.67
2018-10-12T21:15:19.689Z,15.03
2018-10-12T21:17:49.823Z,14.93
2018-10-12T21:20:19.742Z,15.50
2018-10-12T21:22:49.699Z,14.50
2018-10-12T21:25:19.166Z,15.20
2018-10-12T21:27:49.076Z,15.00
2018-10-12T21:30:19.712Z,15.03
2018-10-12T21:32:49.235Z,14.93
2018-10-12T21:35:19.479Z,15.10
2018-10-12T21:37:52.414Z,14.63
2018-10-12T21:40:22.478Z,15.13
2018-10-12T21:42:52.581Z,14.70
2018-10-12T21:45:24.922Z,14.07
2018-10-12T21:47:55.967Z,14.57
2018-10-12T21:50:25.619Z,14.50
2018-10-12T21:52:56.020Z,15.30
2018-10-12T21:55:27.060Z,14.50
2018-10-12T21:57:57.346Z,15.63
2018-10-12T22:00:26.838Z,15.07
2018-10-12T22:02:56.604Z,15.17
2018-10-12T22:05:26.367Z,15.60
2018-10-12T22:07:56.585Z,15.23
2018-10-12T22:10:27.375Z,15.43
2018-10-12T22:12:57.504Z,15.37
2018-10-12T22:15:27.109Z,14.63
2018-10-12T22:17:57.361Z,14.33
2018-10-12T22:20:26.583Z,14.13
2018-10-12T22:22:55.785Z,14.90
2018-10-12T22:25:24.773Z,14.50
2018-10-12T22:27:54.393Z,14.63
2018-10-12T22:30:23.698Z,14.63
2018-10-12T22:32:52.854Z,14.03
2018-10-12T22:35:22.344Z,14.67
2018-10-12T22:37:51.398Z,14.87
2018-10-12T22:40:20.844Z,14.73
2018-10-12T22:42:50.445Z,13.40
2018-10-12T22:45:20.494Z,14.17
2018-10-12T22:47:49.911Z,14.83
2018-10-12T22:50:19.326Z,14.30
2018-10-12T22:52:48.731Z,13.63
2018-10-12T22:55:19.653Z,15.17
2018-10-12T22:57:48.810Z,13.77
2018-10-12T23:00:18.162Z,13.30
2018-10-12T23:02:47.704Z,14.10
2018-10-12T23:05:16.853Z,14.63
2018-10-12T23:07:46.111Z,14.10
2018-10-12T23:10:15.397Z,14.20
2018-10-12T23:12:45.356Z,13.63
2018-10-12T23:15:15.779Z,14.53
2018-10-12T23:17:45.527Z,14.67
2018-10-12T23:20:15.639Z,14.30
2018-10-12T23:22:44.909Z,14.50
2018-10-12T23:25:14.445Z,15.63
2018-10-12T23:27:44.155Z,14.57
2018-10-12T23:30:14.399Z,13.90
2018-10-12T23:32:43.770Z,15.10
2018-10-12T23:35:14.108Z,13.67
2018-10-12T23:37:43.546Z,13.77
2018-10-12T23:40:13.063Z,14.27
2018-10-12T23:42:43.302Z,13.83
2018-10-12T23:45:12.678Z,14.90
2018-10-12T23:47:42.786Z,14.37
2018-10-12T23:50:12.455Z,13.30
2018-10-12T23:52:42.115Z,14.57
2018-10-12T23:55:11.698Z,13.97
2018-10-12T23:57:40.941Z,13.77
